Main page
METAR-TAF:

METAR-TAF

Airports :

Shiraz International Airport

Shiraz, Iran

latitude: 29-32N, longitude: 052-35E, elevation: 1486 m

Current weather observation

The report was made 34 minutes ago, at 08:30 UTC
Calm wind
Temperature 17°C
Humidity 48%
Pressure 1023 hPa
Visibility 10 km or more
no clouds below 1500 m and no cumulonimbus

METAR: OISS 180830Z 00000KT CAVOK 17/06 Q1022 A3020

Time: 12:34 (09:04 UTC)

Forecast

The report was made 3 hours and 19 minutes ago, at 05:45 UTC
Forecast valid from 18 at 06 UTC to 19 at 12 UTC
Wind 6 kt from the East/Southeast
Visibility 10 km or more
no clouds below 1500 m and no cumulonimbus
Temporary
from 18 at 18 UTC to 19 at 04 UTC
Visibility: 5000 m
mist, haze

TAF: OISS 180545Z 1806/1912 11003MPS CAVOK TEMPO 1818/1904 5000 BR HZ

Weather observations and forecasts of more than 4000 airports (METAR and TAF reports).

The available stations are represented by yellow and red dots on the map.

Hover mouse over dot to see the name of the station.

Then click to see weather observations and forecasts.

To change the map : click on the green buttons with a black cross to zoom in, on the green button with a dash to zoom out, or on the green arrows for adjacent maps.


METAR-TAF: